4th MAY, 2016

 

METAR SMJP 041900Z 07006KT 9999 FEW025TCU SCT035 32/22 Q1010 NOSIG=

METAR SMZO 041900Z 02012KT 9999 SCT035 33/23 Q1010 NOSIG=

METAR SMNI 041900Z 05009KT 9999 FEW030 29/23 Q1011=

METAR SMZT 041900Z NIL=